Time;durP1;ratioP1;P1;durP2;ratioP2;P2;SDS_P1;SDS_P2;PMS_P1;PMS_P2;Temp;Humidity;BMP_temperature;BMP_pressure;BME280_temperature;BME280_humidity;BME280_pressure;Samples;Min_cycle;Max_cycle;Signal;HPM_P1;HPM_P2
2022/03/07 00:00:58;;;;;;;21.40;12.48;;;1.30;99.90;;;;;;4991577;28;20501;-35
2022/03/07 00:03:25;;;;;;;17.45;11.23;;;1.30;99.90;;;;;;4991687;28;20050;-36
2022/03/07 00:05:51;;;;;;;18.75;12.82;;;1.20;99.90;;;;;;4990541;28;20112;-35
2022/03/07 00:08:19;;;;;;;24.83;14.63;;;1.20;99.90;;;;;;4992634;28;20072;-36
2022/03/07 00:10:45;;;;;;;26.77;16.90;;;1.20;99.90;;;;;;4990493;28;20049;-35
2022/03/07 00:13:13;;;;;;;18.65;13.32;;;1.20;99.90;;;;;;4992273;28;20125;-36
2022/03/07 00:15:40;;;;;;;23.65;12.75;;;1.10;99.90;;;;;;4989689;28;20474;-35
2022/03/07 00:18:07;;;;;;;20.58;13.43;;;1.10;99.90;;;;;;4987407;28;20070;-36
2022/03/07 00:20:34;;;;;;;19.77;11.32;;;1.00;99.90;;;;;;4990140;28;20054;-35
2022/03/07 00:23:00;;;;;;;16.85;11.45;;;1.00;99.90;;;;;;4992695;28;20054;-36
2022/03/07 00:25:27;;;;;;;25.17;13.50;;;1.00;99.90;;;;;;4989871;28;20043;-35
2022/03/07 00:27:54;;;;;;;18.20;11.05;;;1.00;99.90;;;;;;4990860;28;20042;-35
2022/03/07 00:30:22;;;;;;;19.20;11.38;;;0.90;99.90;;;;;;4990037;28;20042;-36
2022/03/07 00:32:49;;;;;;;21.52;11.90;;;0.90;99.90;;;;;;4984938;28;20539;-35
2022/03/07 00:35:16;;;;;;;17.20;10.35;;;0.90;99.90;;;;;;4991644;28;20042;-36
2022/03/07 00:37:42;;;;;;;20.27;13.40;;;0.90;99.90;;;;;;4990077;28;20510;-35
2022/03/07 00:40:10;;;;;;;18.23;11.30;;;0.90;99.90;;;;;;4991209;28;20225;-36
2022/03/07 00:42:38;;;;;;;21.52;14.80;;;0.80;99.90;;;;;;4990236;28;20051;-35
2022/03/07 00:45:06;;;;;;;20.02;13.90;;;0.80;99.90;;;;;;4990174;28;20136;-36
2022/03/07 00:47:34;;;;;;;17.70;11.98;;;0.80;99.90;;;;;;4989953;28;20466;-35
2022/03/07 00:50:01;;;;;;;26.30;16.58;;;0.70;99.90;;;;;;4992128;28;20108;-36
2022/03/07 00:52:28;;;;;;;17.10;11.93;;;0.70;99.90;;;;;;4991402;28;20046;-35
2022/03/07 00:54:54;;;;;;;17.77;12.07;;;0.60;99.90;;;;;;4994348;28;20072;-36
2022/03/07 00:57:21;;;;;;;17.75;10.65;;;0.50;99.90;;;;;;4995334;28;20124;-35
2022/03/07 00:59:48;;;;;;;17.48;11.23;;;0.50;99.90;;;;;;4997135;28;20371;-36
2022/03/07 01:02:15;;;;;;;19.20;12.07;;;0.50;99.90;;;;;;4994837;28;20084;-35
2022/03/07 01:04:43;;;;;;;15.13;11.60;;;0.50;99.90;;;;;;4993519;28;20462;-36
2022/03/07 01:07:09;;;;;;;20.30;12.00;;;0.50;99.90;;;;;;4994719;28;20056;-35
2022/03/07 01:09:36;;;;;;;19.60;12.30;;;0.50;99.90;;;;;;4995784;28;20134;-35
2022/03/07 01:12:03;;;;;;;18.65;11.23;;;0.40;99.90;;;;;;4993441;28;20049;-35
2022/03/07 01:14:30;;;;;;;21.20;11.77;;;0.40;99.90;;;;;;4994259;28;20092;-35
2022/03/07 01:16:57;;;;;;;19.83;13.48;;;0.40;99.90;;;;;;4994599;28;20048;-36
2022/03/07 01:19:23;;;;;;;15.32;11.07;;;0.40;99.90;;;;;;4991526;28;20432;-37
2022/03/07 01:21:52;;;;;;;15.65;10.45;;;0.40;99.90;;;;;;4992880;28;20060;-35
2022/03/07 01:24:19;;;;;;;14.63;10.73;;;0.30;99.90;;;;;;4995520;28;20057;-35
2022/03/07 01:26:46;;;;;;;19.42;11.60;;;0.30;99.90;;;;;;4994567;28;20061;-36
2022/03/07 01:29:13;;;;;;;18.85;10.60;;;0.30;99.90;;;;;;4993825;28;20046;-35
2022/03/07 01:31:40;;;;;;;16.27;10.82;;;0.30;99.90;;;;;;4995562;28;20133;-35
2022/03/07 01:34:06;;;;;;;14.63;9.90;;;0.20;99.90;;;;;;4994799;28;20046;-35
2022/03/07 01:36:33;;;;;;;16.13;10.27;;;0.20;99.90;;;;;;4994350;28;20121;-36
2022/03/07 01:39:01;;;;;;;16.88;9.55;;;0.20;99.90;;;;;;4994619;28;20081;-35
2022/03/07 01:41:28;;;;;;;14.55;9.93;;;0.20;99.90;;;;;;4993957;28;20145;-35
2022/03/07 01:43:55;;;;;;;18.48;10.32;;;0.10;99.90;;;;;;4994071;28;20047;-35
2022/03/07 01:46:21;;;;;;;13.20;10.23;;;0.10;99.90;;;;;;4990561;28;20046;-36
2022/03/07 01:48:48;;;;;;;13.65;9.05;;;0.10;99.90;;;;;;4995713;28;20390;-35
2022/03/07 01:51:15;;;;;;;16.83;9.95;;;0.10;99.90;;;;;;4994256;28;20117;-35
2022/03/07 01:53:42;;;;;;;15.07;8.77;;;0.10;99.90;;;;;;4995429;28;20046;-35
2022/03/07 01:56:10;;;;;;;16.38;10.63;;;0.00;99.90;;;;;;4995263;28;20077;-37
2022/03/07 01:58:36;;;;;;;13.88;9.27;;;0.00;99.90;;;;;;4994345;28;20130;-35
2022/03/07 02:01:03;;;;;;;11.90;8.45;;;0.00;99.90;;;;;;4992490;28;20042;-35
2022/03/07 02:03:30;;;;;;;15.60;9.93;;;0.00;99.90;;;;;;4994559;28;20053;-35
2022/03/07 02:05:57;;;;;;;14.52;10.57;;;0.00;99.90;;;;;;4993824;28;20073;-35
2022/03/07 02:08:24;;;;;;;15.20;9.80;;;-0.10;99.90;;;;;;4994459;28;20334;-35
2022/03/07 02:10:50;;;;;;;15.63;8.50;;;-0.10;99.90;;;;;;4994039;28;20140;-35
2022/03/07 02:13:20;;;;;;;10.98;7.70;;;-0.10;99.90;;;;;;4992912;28;20050;-35
2022/03/07 02:15:53;;;;;;;17.63;10.85;;;-0.20;99.90;;;;;;4992047;28;20049;-35
2022/03/07 02:18:21;;;;;;;15.98;9.80;;;-0.20;99.90;;;;;;4993304;28;20466;-35
2022/03/07 02:20:50;;;;;;;11.98;8.02;;;-0.20;99.90;;;;;;4992489;28;20047;-35
2022/03/07 02:23:18;;;;;;;12.55;7.68;;;-0.20;99.90;;;;;;4994267;28;20097;-35
2022/03/07 02:25:45;;;;;;;14.80;9.40;;;-0.20;99.90;;;;;;4993270;28;20052;-35
2022/03/07 02:28:11;;;;;;;18.30;10.27;;;-0.30;99.90;;;;;;4993341;28;20052;-35
2022/03/07 02:30:38;;;;;;;13.02;9.48;;;-0.30;99.90;;;;;;4993471;28;20470;-35
2022/03/07 02:33:05;;;;;;;13.07;9.07;;;-0.30;99.90;;;;;;4993656;28;20110;-35
2022/03/07 02:35:32;;;;;;;14.82;9.50;;;-0.30;99.90;;;;;;4992470;28;20054;-35
2022/03/07 02:37:58;;;;;;;17.02;9.82;;;-0.30;99.90;;;;;;4993049;28;20078;-35
2022/03/07 02:40:26;;;;;;;14.80;10.18;;;-0.30;99.90;;;;;;4993189;28;20060;-35
2022/03/07 02:42:53;;;;;;;14.52;8.70;;;-0.30;99.90;;;;;;4992864;28;20393;-35
2022/03/07 02:45:20;;;;;;;11.82;7.80;;;-0.40;99.90;;;;;;4994096;28;20130;-35
2022/03/07 02:47:46;;;;;;;14.18;9.57;;;-0.40;99.90;;;;;;4992436;28;20042;-35
2022/03/07 02:50:13;;;;;;;15.43;9.60;;;-0.40;99.90;;;;;;4991094;28;20498;-35
2022/03/07 02:52:40;;;;;;;15.25;9.98;;;-0.40;99.90;;;;;;4991587;28;20068;-35
2022/03/07 02:55:08;;;;;;;15.73;9.55;;;-0.40;99.90;;;;;;4993867;28;20052;-35
2022/03/07 02:57:36;;;;;;;12.35;8.70;;;-0.50;99.90;;;;;;4993222;28;20050;-35
2022/03/07 03:00:03;;;;;;;15.82;8.70;;;-0.50;99.90;;;;;;4993243;28;20048;-34
2022/03/07 03:02:29;;;;;;;15.35;10.93;;;-0.50;99.90;;;;;;4990432;28;20042;-35
2022/03/07 03:04:56;;;;;;;17.77;10.57;;;-0.50;99.90;;;;;;4992969;28;20046;-35
2022/03/07 03:07:23;;;;;;;21.45;12.15;;;-0.60;99.90;;;;;;4984195;28;20042;-35
2022/03/07 03:09:50;;;;;;;18.35;10.18;;;-0.60;99.90;;;;;;4988245;28;20046;-36
2022/03/07 03:12:16;;;;;;;15.18;9.60;;;-0.60;99.90;;;;;;4992901;28;20125;-35
2022/03/07 03:14:46;;;;;;;15.18;9.20;;;-0.60;99.90;;;;;;4991836;28;20046;-35
2022/03/07 03:17:13;;;;;;;14.13;8.85;;;-0.70;99.90;;;;;;4991753;28;20086;-35
2022/03/07 03:19:40;;;;;;;12.90;8.52;;;-0.70;99.90;;;;;;4992530;28;20389;-35
2022/03/07 03:22:06;;;;;;;15.80;10.35;;;-0.70;99.90;;;;;;4992619;28;20049;-36
2022/03/07 03:24:33;;;;;;;17.88;10.60;;;-0.70;99.90;;;;;;4992416;28;20057;-36
2022/03/07 03:27:00;;;;;;;19.20;9.90;;;-0.80;99.90;;;;;;4991782;28;20046;-35
2022/03/07 03:29:26;;;;;;;16.90;11.02;;;-0.70;99.90;;;;;;4993407;28;20053;-35
2022/03/07 03:31:54;;;;;;;19.08;10.75;;;-0.80;99.90;;;;;;4991912;28;20046;-35
2022/03/07 03:34:21;;;;;;;11.55;8.52;;;-0.80;99.90;;;;;;4991617;28;20421;-35
2022/03/07 03:36:48;;;;;;;17.70;9.68;;;-0.80;99.90;;;;;;4990045;28;20046;-35
2022/03/07 03:39:14;;;;;;;15.82;9.27;;;-0.80;99.90;;;;;;4987758;28;20133;-34
2022/03/07 03:41:41;;;;;;;13.23;8.73;;;-0.80;99.90;;;;;;4992143;28;20426;-35
2022/03/07 03:44:08;;;;;;;15.55;10.38;;;-0.90;99.90;;;;;;4991934;28;20050;-35
2022/03/07 03:46:35;;;;;;;14.75;9.75;;;-0.90;99.90;;;;;;4991915;28;20056;-34
2022/03/07 03:49:03;;;;;;;20.52;12.20;;;-0.90;99.90;;;;;;4992005;28;20479;-35
2022/03/07 03:51:29;;;;;;;19.38;11.55;;;-0.90;99.90;;;;;;4992828;28;20035;-35
2022/03/07 03:53:56;;;;;;;15.45;9.07;;;-0.90;99.90;;;;;;4992240;28;20042;-35
2022/03/07 03:56:23;;;;;;;16.10;9.80;;;-1.00;99.90;;;;;;4992321;28;20052;-35
2022/03/07 03:58:49;;;;;;;15.95;9.68;;;-1.00;99.90;;;;;;4986538;28;20050;-34
2022/03/07 04:01:16;;;;;;;12.30;8.60;;;-1.00;99.90;;;;;;4981330;28;20393;-35
2022/03/07 04:03:43;;;;;;;16.83;9.43;;;-1.00;99.90;;;;;;4992457;28;20046;-35
2022/03/07 04:06:11;;;;;;;12.98;8.23;;;-1.00;99.90;;;;;;4990599;28;20066;-35
2022/03/07 04:08:42;;;;;;;15.95;10.38;;;-1.00;99.90;;;;;;4990136;28;20556;-35
2022/03/07 04:11:09;;;;;;;20.95;12.43;;;-1.10;99.90;;;;;;4991496;28;20476;-36
2022/03/07 04:13:36;;;;;;;16.02;10.35;;;-1.10;99.90;;;;;;4977914;28;20046;-35
2022/03/07 04:16:03;;;;;;;17.25;11.10;;;-1.10;99.90;;;;;;4992906;28;20050;-35
2022/03/07 04:18:30;;;;;;;15.48;10.20;;;-1.20;99.90;;;;;;4991688;28;20042;-35
2022/03/07 04:20:56;;;;;;;15.00;10.85;;;-1.20;99.90;;;;;;4992039;28;20372;-36
2022/03/07 04:23:24;;;;;;;15.85;9.32;;;-1.20;99.90;;;;;;4990617;28;20045;-35
2022/03/07 04:25:51;;;;;;;15.82;9.65;;;-1.20;99.90;;;;;;4991314;28;20052;-35
2022/03/07 04:28:18;;;;;;;16.70;9.27;;;-1.20;99.90;;;;;;4991108;28;20057;-35
2022/03/07 04:30:44;;;;;;;16.05;10.13;;;-1.30;99.90;;;;;;4990201;28;20049;-36
2022/03/07 04:33:11;;;;;;;24.63;12.93;;;-1.20;99.90;;;;;;4991127;28;20053;-36
2022/03/07 04:35:38;;;;;;;22.50;11.32;;;-1.30;99.90;;;;;;4992146;28;20050;-36
2022/03/07 04:38:05;;;;;;;24.55;13.23;;;-1.30;99.90;;;;;;4982443;28;20056;-36
2022/03/07 04:40:33;;;;;;;23.58;13.90;;;-1.30;99.90;;;;;;4989349;28;20060;-36
2022/03/07 04:43:01;;;;;;;20.42;11.48;;;-1.30;99.90;;;;;;4988539;28;20427;-35
2022/03/07 04:45:27;;;;;;;22.45;12.23;;;-1.30;99.90;;;;;;4992014;28;20157;-35
2022/03/07 04:47:54;;;;;;;21.10;11.93;;;-1.30;99.90;;;;;;4990551;28;20039;-36
2022/03/07 04:50:21;;;;;;;24.20;13.02;;;-1.30;99.90;;;;;;4989976;28;20129;-35
2022/03/07 04:52:47;;;;;;;20.38;11.95;;;-1.30;99.90;;;;;;4991080;28;20052;-35
2022/03/07 04:55:14;;;;;;;16.88;10.13;;;-1.30;99.90;;;;;;4989699;28;20387;-36
2022/03/07 04:57:44;;;;;;;22.50;13.43;;;-1.30;99.90;;;;;;4990557;28;20042;-34
2022/03/07 05:00:11;;;;;;;19.10;11.30;;;-1.30;99.90;;;;;;4990756;28;20046;-34
2022/03/07 05:02:38;;;;;;;21.60;12.65;;;-1.30;99.90;;;;;;4990997;28;20047;-35
2022/03/07 05:05:05;;;;;;;23.25;13.20;;;-1.30;99.90;;;;;;4988794;28;20052;-35
2022/03/07 05:07:32;;;;;;;24.88;13.90;;;-1.30;99.90;;;;;;4989481;28;20062;-36
2022/03/07 05:09:59;;;;;;;30.00;14.50;;;-1.30;99.90;;;;;;4990890;28;20056;-36
2022/03/07 05:12:25;;;;;;;23.52;14.32;;;-1.20;99.90;;;;;;4991156;28;20046;-36
2022/03/07 05:14:53;;;;;;;22.30;12.45;;;-1.20;99.90;;;;;;4991179;28;20053;-38
2022/03/07 05:17:21;;;;;;;31.20;12.68;;;-1.20;99.90;;;;;;4991535;28;20141;-35
2022/03/07 05:19:48;;;;;;;18.02;12.00;;;-1.20;99.90;;;;;;4991344;28;20129;-36
2022/03/07 05:22:14;;;;;;;21.67;12.35;;;-1.20;99.90;;;;;;4987527;28;20434;-35
2022/03/07 05:24:41;;;;;;;21.63;12.82;;;-1.20;99.90;;;;;;4988277;28;20185;-35
2022/03/07 05:27:08;;;;;;;21.33;12.73;;;-1.20;99.90;;;;;;4989054;28;20046;-35
2022/03/07 05:29:35;;;;;;;23.23;13.07;;;-1.20;99.90;;;;;;4991835;28;20047;-34
2022/03/07 05:32:04;;;;;;;18.70;11.38;;;-1.20;99.90;;;;;;4991985;28;20056;-36
2022/03/07 05:34:31;;;;;;;23.98;13.27;;;-1.30;99.90;;;;;;4989484;28;20046;-35
2022/03/07 05:36:57;;;;;;;24.52;12.77;;;-1.30;99.90;;;;;;4991080;28;20048;-35
2022/03/07 05:39:24;;;;;;;21.95;13.88;;;-1.30;99.90;;;;;;4992145;28;20401;-35
2022/03/07 05:41:51;;;;;;;28.52;14.52;;;-1.30;99.90;;;;;;4986231;28;20053;-35
2022/03/07 05:44:17;;;;;;;19.75;11.52;;;-1.30;99.90;;;;;;4986478;28;21755;-34
2022/03/07 05:46:44;;;;;;;21.42;13.60;;;-1.30;99.90;;;;;;4986513;28;20049;-35
2022/03/07 05:49:12;;;;;;;23.92;13.93;;;-1.30;99.90;;;;;;4992588;28;20048;-35
2022/03/07 05:51:41;;;;;;;27.80;13.82;;;-1.30;99.90;;;;;;4993398;28;20048;-35
2022/03/07 05:54:07;;;;;;;20.50;12.90;;;-1.30;99.90;;;;;;4993073;28;20046;-35
2022/03/07 05:56:34;;;;;;;23.08;13.48;;;-1.30;99.90;;;;;;4994939;28;20385;-35
2022/03/07 05:59:01;;;;;;;27.27;13.48;;;-1.30;99.90;;;;;;4991433;28;20057;-35
2022/03/07 06:01:27;;;;;;;21.42;12.13;;;-1.20;99.90;;;;;;4994607;28;20046;-34
2022/03/07 06:03:54;;;;;;;23.70;13.38;;;-1.20;99.90;;;;;;4994221;28;20050;-34
2022/03/07 06:06:22;;;;;;;20.63;12.27;;;-1.20;99.90;;;;;;4994304;28;20513;-34
2022/03/07 06:08:49;;;;;;;22.05;13.82;;;-1.20;99.90;;;;;;4994930;28;20129;-35
2022/03/07 06:11:15;;;;;;;24.13;13.77;;;-1.10;99.90;;;;;;4993433;28;20377;-34
2022/03/07 06:13:43;;;;;;;24.13;13.38;;;-1.10;99.90;;;;;;4991691;28;20052;-34
2022/03/07 06:16:09;;;;;;;27.33;14.90;;;-1.10;99.90;;;;;;4992395;28;20530;-34
2022/03/07 06:18:36;;;;;;;25.88;15.90;;;-1.10;99.90;;;;;;4992594;28;20046;-34
2022/03/07 06:21:03;;;;;;;30.05;17.10;;;-1.00;99.90;;;;;;4976026;28;20505;-35
2022/03/07 06:23:31;;;;;;;33.50;15.77;;;-1.00;99.90;;;;;;4964736;28;20057;-35
2022/03/07 06:25:58;;;;;;;25.85;13.52;;;-1.00;99.90;;;;;;4989239;28;20371;-35
2022/03/07 06:28:24;;;;;;;31.17;16.15;;;-1.00;99.90;;;;;;4993615;28;20051;-35
2022/03/07 06:30:51;;;;;;;25.85;14.75;;;-0.90;99.90;;;;;;4994235;28;20046;-35
2022/03/07 06:33:18;;;;;;;25.85;14.20;;;-0.90;99.90;;;;;;4993398;28;20385;-35
2022/03/07 06:35:44;;;;;;;27.55;15.38;;;-0.90;99.90;;;;;;4994357;28;20090;-35
2022/03/07 06:38:11;;;;;;;26.13;14.85;;;-0.80;99.90;;;;;;4992801;28;20382;-35
2022/03/07 06:40:39;;;;;;;25.50;13.57;;;-0.80;99.90;;;;;;4992941;28;20053;-35
2022/03/07 06:43:06;;;;;;;24.90;13.98;;;-0.70;99.90;;;;;;4991424;28;20066;-35
2022/03/07 06:45:33;;;;;;;27.15;15.18;;;-0.70;99.90;;;;;;4991184;28;20157;-35
2022/03/07 06:48:00;;;;;;;26.92;14.07;;;-0.70;99.90;;;;;;4976537;28;20582;-35
2022/03/07 06:50:26;;;;;;;21.40;12.82;;;-0.70;99.90;;;;;;4992315;28;20052;-34
2022/03/07 06:52:53;;;;;;;32.13;15.02;;;-0.60;99.90;;;;;;4993601;28;20409;-34
2022/03/07 06:55:20;;;;;;;25.55;14.88;;;-0.60;99.90;;;;;;4993062;28;20054;-35
2022/03/07 06:57:48;;;;;;;25.70;15.50;;;-0.50;99.90;;;;;;4994199;28;20059;-34
2022/03/07 07:00:16;;;;;;;24.38;14.30;;;-0.50;99.90;;;;;;4992459;28;20137;-35
2022/03/07 07:02:43;;;;;;;28.55;15.18;;;-0.40;99.90;;;;;;4993956;28;20072;-35
2022/03/07 07:05:10;;;;;;;24.55;13.65;;;-0.40;99.90;;;;;;4992603;28;20050;-36
2022/03/07 07:07:36;;;;;;;23.30;12.70;;;-0.30;99.90;;;;;;4992521;28;20478;-36
2022/03/07 07:10:03;;;;;;;29.60;16.10;;;-0.30;99.90;;;;;;4992539;28;20053;-34
2022/03/07 07:12:30;;;;;;;27.83;15.20;;;-0.20;99.90;;;;;;4992201;28;20054;-34
2022/03/07 07:14:58;;;;;;;28.35;15.90;;;-0.20;99.90;;;;;;4992175;28;20046;-34
2022/03/07 07:17:25;;;;;;;29.05;15.43;;;0.00;99.90;;;;;;4992376;28;20398;-34
2022/03/07 07:19:52;;;;;;;24.13;11.93;;;0.10;99.90;;;;;;4992465;28;20050;-35
2022/03/07 07:22:18;;;;;;;27.23;13.70;;;0.10;99.90;;;;;;4992015;28;20482;-35
2022/03/07 07:24:45;;;;;;;24.73;13.48;;;0.10;99.90;;;;;;4992605;28;20050;-34
2022/03/07 07:27:12;;;;;;;27.55;15.10;;;0.20;99.90;;;;;;4992454;28;20097;-37
2022/03/07 07:29:39;;;;;;;23.45;13.85;;;0.30;99.90;;;;;;4991999;28;20042;-35
2022/03/07 07:32:08;;;;;;;25.05;15.48;;;0.40;99.90;;;;;;4993276;28;20046;-35
2022/03/07 07:34:34;;;;;;;26.45;14.43;;;0.50;99.90;;;;;;4992249;28;20054;-35
2022/03/07 07:37:01;;;;;;;32.58;17.15;;;0.70;99.90;;;;;;4991935;28;20054;-36
2022/03/07 07:39:28;;;;;;;30.90;16.10;;;0.80;99.90;;;;;;4991041;28;20053;-36
2022/03/07 07:41:55;;;;;;;26.08;16.88;;;0.90;99.90;;;;;;4992182;28;20466;-35
2022/03/07 07:44:22;;;;;;;26.42;16.95;;;1.00;99.90;;;;;;4991033;28;20105;-36
2022/03/07 07:46:49;;;;;;;29.92;16.45;;;1.10;99.90;;;;;;4990791;28;20080;-35
2022/03/07 07:49:17;;;;;;;23.67;14.48;;;1.20;99.90;;;;;;4993056;28;20082;-35
2022/03/07 07:51:43;;;;;;;23.52;16.52;;;1.40;99.90;;;;;;4991690;28;20056;-34
2022/03/07 07:54:10;;;;;;;24.52;16.08;;;1.50;99.90;;;;;;4991614;28;20042;-34
2022/03/07 07:56:37;;;;;;;24.95;16.30;;;1.60;99.90;;;;;;4972605;28;20126;-35
2022/03/07 07:59:03;;;;;;;22.80;15.32;;;1.80;99.90;;;;;;4972405;28;20064;-35
2022/03/07 08:01:30;;;;;;;21.30;14.43;;;1.80;99.90;;;;;;4977523;28;20342;-35
2022/03/07 08:03:57;;;;;;;22.92;14.57;;;1.90;99.90;;;;;;4989664;28;20059;-35
2022/03/07 08:06:25;;;;;;;24.80;14.60;;;2.10;99.90;;;;;;4991157;28;20056;-35
2022/03/07 08:08:52;;;;;;;22.30;13.50;;;2.20;99.90;;;;;;4991097;28;20046;-35
2022/03/07 08:11:19;;;;;;;18.75;13.10;;;2.30;99.90;;;;;;4988901;28;20045;-36
2022/03/07 08:13:45;;;;;;;24.40;13.38;;;2.50;99.90;;;;;;4989615;28;20049;-35
2022/03/07 08:16:12;;;;;;;21.73;14.30;;;2.60;99.90;;;;;;4991749;28;20046;-35
2022/03/07 08:18:39;;;;;;;26.55;13.32;;;2.70;99.90;;;;;;4989644;28;20046;-35
2022/03/07 08:21:05;;;;;;;23.83;13.50;;;2.90;99.90;;;;;;4989290;28;20415;-36
2022/03/07 08:23:33;;;;;;;24.48;13.57;;;3.00;99.90;;;;;;4991212;28;20049;-35
2022/03/07 08:26:00;;;;;;;22.65;14.73;;;3.10;99.90;;;;;;4989533;28;20053;-35
2022/03/07 08:28:27;;;;;;;19.88;13.57;;;3.30;99.90;;;;;;4991849;28;20050;-35
2022/03/07 08:30:53;;;;;;;21.65;13.02;;;3.40;99.90;;;;;;4991201;28;20050;-35
2022/03/07 08:33:20;;;;;;;20.73;13.68;;;3.60;99.90;;;;;;4989537;28;20038;-35
2022/03/07 08:35:47;;;;;;;16.83;12.23;;;3.70;99.90;;;;;;4990250;28;20060;-35
2022/03/07 08:38:14;;;;;;;21.80;12.00;;;3.70;99.90;;;;;;4989756;28;20050;-34
2022/03/07 08:40:42;;;;;;;18.67;12.52;;;3.80;99.90;;;;;;4989535;28;20054;-35
2022/03/07 08:43:09;;;;;;;20.67;12.27;;;3.80;99.90;;;;;;4990096;28;20133;-35
2022/03/07 08:45:35;;;;;;;16.75;11.68;;;3.80;99.90;;;;;;4974919;28;20574;-36
2022/03/07 08:48:02;;;;;;;18.42;10.10;;;3.90;99.90;;;;;;4973749;28;20057;-35
2022/03/07 08:50:29;;;;;;;15.10;10.25;;;3.80;99.90;;;;;;4990652;28;20046;-35
2022/03/07 08:52:56;;;;;;;18.60;11.60;;;3.90;99.90;;;;;;4990539;28;20463;-35
2022/03/07 08:55:23;;;;;;;18.45;11.77;;;4.00;99.90;;;;;;4975009;28;20149;-34
2022/03/07 08:57:51;;;;;;;14.02;10.75;;;4.00;99.90;;;;;;4989619;28;20557;-35
2022/03/07 09:00:18;;;;;;;17.25;11.55;;;4.10;99.90;;;;;;4991690;28;20042;-35
2022/03/07 09:02:45;;;;;;;17.40;10.60;;;4.10;99.90;;;;;;4991096;28;20092;-36
2022/03/07 09:05:12;;;;;;;17.70;11.00;;;4.30;99.90;;;;;;4989516;28;20057;-36
2022/03/07 09:07:39;;;;;;;17.17;10.68;;;4.40;99.90;;;;;;4990773;28;20074;-36
2022/03/07 09:10:06;;;;;;;25.00;11.23;;;4.50;99.90;;;;;;4989859;28;20121;-35
2022/03/07 09:12:33;;;;;;;18.00;10.27;;;4.70;99.90;;;;;;4990357;28;20400;-35
2022/03/07 09:15:02;;;;;;;18.23;9.85;;;4.80;99.90;;;;;;4995061;28;20057;-35
2022/03/07 09:17:28;;;;;;;15.93;9.60;;;4.90;99.90;;;;;;4994558;28;20042;-36
2022/03/07 09:19:55;;;;;;;16.95;10.23;;;5.10;99.90;;;;;;4992891;28;20046;-35
2022/03/07 09:22:22;;;;;;;16.33;9.82;;;5.20;99.90;;;;;;4993937;28;20112;-35
2022/03/07 09:24:49;;;;;;;13.32;8.85;;;5.40;99.90;;;;;;4993095;28;20042;-37
2022/03/07 09:27:16;;;;;;;11.52;6.10;;;5.60;99.90;;;;;;4995658;28;20082;-35
2022/03/07 09:29:42;;;;;;;9.10;5.20;;;5.70;99.90;;;;;;4995826;28;20382;-36
2022/03/07 09:32:10;;;;;;;9.10;6.13;;;5.80;99.90;;;;;;4994199;28;20042;-36
2022/03/07 09:34:37;;;;;;;12.23;6.78;;;5.90;99.90;;;;;;4993891;28;20124;-36
2022/03/07 09:37:04;;;;;;;12.35;6.63;;;6.00;99.90;;;;;;4994041;28;20483;-36
2022/03/07 09:39:31;;;;;;;12.23;6.22;;;6.20;99.90;;;;;;4995743;28;20433;-36
2022/03/07 09:41:58;;;;;;;11.35;7.25;;;6.20;99.90;;;;;;4995585;28;20052;-36
2022/03/07 09:44:25;;;;;;;14.60;7.80;;;6.30;99.90;;;;;;4994326;28;20056;-37
2022/03/07 09:46:51;;;;;;;11.13;6.82;;;6.50;99.90;;;;;;4993160;28;20368;-37
2022/03/07 09:49:20;;;;;;;11.25;6.47;;;6.60;99.90;;;;;;4992938;28;20478;-37
2022/03/07 09:51:47;;;;;;;15.77;6.68;;;6.70;99.90;;;;;;4993653;28;20140;-37
2022/03/07 09:54:13;;;;;;;13.52;6.35;;;6.70;99.90;;;;;;4995164;28;20403;-37
2022/03/07 09:56:40;;;;;;;13.05;7.05;;;6.80;99.90;;;;;;4993591;28;20050;-37
2022/03/07 09:59:07;;;;;;;11.32;7.22;;;6.90;99.90;;;;;;4993405;28;20436;-37
2022/03/07 10:01:35;;;;;;;11.90;6.18;;;7.00;99.90;;;;;;4993480;28;20065;-36
2022/03/07 10:04:05;;;;;;;12.40;5.90;;;7.20;99.90;;;;;;4993330;28;20049;-37
2022/03/07 10:06:33;;;;;;;10.15;5.35;;;7.30;99.90;;;;;;4992785;28;20497;-37
2022/03/07 10:09:00;;;;;;;7.78;5.53;;;7.30;99.90;;;;;;4994227;28;20382;-37
2022/03/07 10:11:28;;;;;;;11.57;5.63;;;7.40;99.90;;;;;;4992015;28;20054;-37
2022/03/07 10:13:56;;;;;;;13.25;5.88;;;7.40;99.80;;;;;;4993194;28;20070;-37
2022/03/07 10:16:23;;;;;;;12.43;5.03;;;7.50;99.30;;;;;;4994871;28;20057;-36
2022/03/07 10:18:50;;;;;;;15.48;5.88;;;7.60;99.10;;;;;;4992727;28;20057;-37
2022/03/07 10:21:22;;;;;;;9.52;4.20;;;7.60;98.40;;;;;;4992675;28;20038;-37
2022/03/07 10:23:52;;;;;;;10.55;4.50;;;7.60;97.90;;;;;;4992514;28;20076;-36
2022/03/07 10:26:19;;;;;;;10.75;4.45;;;7.70;97.80;;;;;;4992810;28;20038;-37
2022/03/07 10:28:52;;;;;;;10.38;4.82;;;7.70;97.50;;;;;;4993349;28;20133;-36
2022/03/07 10:31:19;;;;;;;10.10;4.47;;;7.80;97.00;;;;;;4992275;28;20501;-36
2022/03/07 10:33:45;;;;;;;10.45;4.72;;;7.60;96.80;;;;;;4991912;28;20488;-36
2022/03/07 10:36:13;;;;;;;8.23;4.25;;;7.50;96.90;;;;;;4994456;28;20489;-37
2022/03/07 10:38:40;;;;;;;7.93;4.03;;;7.40;97.20;;;;;;4993386;28;20042;-37
2022/03/07 10:41:08;;;;;;;12.27;3.88;;;7.30;97.40;;;;;;4985769;28;20050;-36
2022/03/07 10:43:35;;;;;;;11.88;4.45;;;7.30;97.80;;;;;;4988519;28;20056;-36
2022/03/07 10:46:02;;;;;;;11.05;4.50;;;7.30;98.30;;;;;;4981816;28;20039;-37
2022/03/07 10:48:39;;;;;;;9.07;4.50;;;7.40;98.60;;;;;;4983158;28;20046;-36
2022/03/07 10:51:06;;;;;;;10.63;4.25;;;7.40;98.50;;;;;;4991649;28;20051;-36
2022/03/07 10:53:40;;;;;;;7.40;3.10;;;7.60;98.80;;;;;;4993696;28;20070;-36
2022/03/07 10:56:11;;;;;;;8.02;3.30;;;7.50;97.30;;;;;;4992651;28;20473;-36
2022/03/07 10:58:44;;;;;;;6.37;3.23;;;7.60;96.80;;;;;;4991329;28;20057;-36
2022/03/07 11:01:11;;;;;;;8.30;4.00;;;7.80;95.80;;;;;;4992172;28;20077;-36
2022/03/07 11:03:38;;;;;;;8.40;3.65;;;7.90;95.50;;;;;;4994032;28;20050;-36
2022/03/07 11:06:05;;;;;;;8.93;3.67;;;8.00;95.70;;;;;;4991306;28;20086;-36
2022/03/07 11:08:32;;;;;;;7.97;3.65;;;8.10;94.20;;;;;;4991066;28;20042;-37
2022/03/07 11:11:00;;;;;;;8.77;3.60;;;8.30;93.60;;;;;;4991190;28;20042;-36
2022/03/07 11:13:29;;;;;;;4.95;3.08;;;8.30;93.70;;;;;;4991909;28;20052;-37
2022/03/07 11:15:57;;;;;;;5.40;3.17;;;8.30;92.10;;;;;;4986413;28;20050;-35
2022/03/07 11:18:24;;;;;;;7.05;2.92;;;8.20;92.00;;;;;;4983810;28;20058;-36
2022/03/07 11:20:52;;;;;;;5.18;2.65;;;8.10;91.70;;;;;;4992171;28;20074;-35
2022/03/07 11:23:21;;;;;;;6.20;3.00;;;8.10;91.20;;;;;;4992335;28;20046;-37
2022/03/07 11:25:49;;;;;;;7.85;2.70;;;8.20;90.80;;;;;;4992161;28;20375;-35
2022/03/07 11:28:16;;;;;;;6.88;2.30;;;8.40;91.10;;;;;;4992049;28;20046;-37
2022/03/07 11:30:44;;;;;;;7.13;2.50;;;8.60;89.50;;;;;;4992078;28;20624;-36
2022/03/07 11:33:12;;;;;;;6.40;2.85;;;8.70;86.60;;;;;;4991869;28;20360;-36
2022/03/07 11:35:42;;;;;;;4.35;2.08;;;8.70;85.90;;;;;;4991459;28;20046;-36
2022/03/07 11:38:13;;;;;;;5.53;2.85;;;8.70;86.80;;;;;;4991036;28;20560;-36
2022/03/07 11:40:55;;;;;;;5.97;2.30;;;8.70;85.60;;;;;;4991873;28;20078;-36
2022/03/07 11:43:24;;;;;;;6.20;2.30;;;8.60;82.70;;;;;;4986969;28;20065;-36
2022/03/07 11:45:52;;;;;;;5.45;2.20;;;8.40;84.20;;;;;;4985496;28;20121;-37
2022/03/07 11:48:18;;;;;;;4.15;2.35;;;8.20;83.90;;;;;;4991869;28;20126;-37
2022/03/07 11:50:46;;;;;;;6.18;1.92;;;8.10;84.70;;;;;;4991198;28;20129;-36
2022/03/07 11:53:14;;;;;;;3.95;2.00;;;8.00;85.90;;;;;;4991703;28;20049;-37
2022/03/07 11:55:44;;;;;;;3.22;2.00;;;8.20;85.00;;;;;;4991484;28;20050;-37
2022/03/07 11:58:11;;;;;;;5.97;1.67;;;8.40;84.50;;;;;;4984130;28;20390;-36
2022/03/07 12:00:38;;;;;;;5.55;2.25;;;8.60;82.40;;;;;;4991030;28;20054;-37
2022/03/07 12:03:13;;;;;;;3.78;1.42;;;8.80;78.60;;;;;;4991607;28;20046;-38
2022/03/07 12:05:40;;;;;;;3.33;1.45;;;8.90;75.30;;;;;;4990761;28;20056;-37
2022/03/07 12:08:09;;;;;;;3.90;1.80;;;9.00;75.40;;;;;;4980903;28;20117;-37
2022/03/07 12:10:36;;;;;;;2.58;1.80;;;9.10;75.50;;;;;;4991536;28;20101;-37
2022/03/07 12:13:07;;;;;;;4.65;1.73;;;9.30;75.00;;;;;;4993415;28;20045;-37
2022/03/07 12:15:43;;;;;;;3.40;1.80;;;9.40;72.50;;;;;;4992129;28;20089;-37
2022/03/07 12:18:10;;;;;;;4.78;1.75;;;9.50;73.20;;;;;;4990266;28;20054;-36
2022/03/07 12:20:48;;;;;;;1.40;1.10;;;9.60;72.30;;;;;;4990958;28;20057;-35
2022/03/07 12:23:15;;;;;;;2.40;1.20;;;9.70;66.40;;;;;;4992524;28;20549;-35
2022/03/07 12:25:42;;;;;;;4.82;2.10;;;9.80;69.10;;;;;;4991558;28;20056;-36
2022/03/07 12:28:09;;;;;;;3.80;2.10;;;9.90;70.60;;;;;;4993095;28;20471;-36
2022/03/07 12:30:36;;;;;;;3.35;1.83;;;10.00;71.20;;;;;;4991640;28;20042;-36
2022/03/07 12:33:06;;;;;;;4.57;1.90;;;10.10;70.20;;;;;;4992178;28;20152;-36
2022/03/07 12:35:33;;;;;;;4.50;1.85;;;10.10;68.80;;;;;;4993607;28;20050;-35
2022/03/07 12:38:01;;;;;;;3.72;1.98;;;10.10;69.30;;;;;;4992169;28;20134;-38